M I D A S
Marine Information and Data Acquisition System
Tripno 1763 of the Zeeleeuw from 2009-07-13 06:44:58 to 2009-07-13 15:15:57
Back to CruiseResearch ActivitiesStationsMapUnderway DataData graphs

EquipmentUnitsComment
TimeDGPSUTC
LatitudeDGPSDM.mWGS84
LongitudeDGPSDM.mWGS84
HeadingGyrodeg 
SOGDGPSknotsSpeed over ground
COGDGPSdegCourse over ground
DepthEcho soundermeters200 kHz
Missing or incorrect values are displayed as -999
Navigation data collected by the RV Zeeleeuw from 2009-07-13 06:47:44 to 2009-07-13 15:25:07
                                                                                    Next 1000 lines
Time Latitude Longitude Heading SOG COG Depth
2009-07-13 06:47:53 51°13.662 2°55.956 111.7 0.7 291 6.8
2009-07-13 06:47:59 51°13.662 2°55.954 111.5 1.1 291 6.8
2009-07-13 06:48:04 51°13.663 2°55.951 111.4 1.4 292 6.9
2009-07-13 06:48:08 51°13.664 2°55.948 111.4 1.7 292 7
2009-07-13 06:48:13 51°13.665 2°55.944 111.7 1.9 293 7
2009-07-13 06:48:18 51°13.666 2°55.94 111.9 2.1 294 -999
2009-07-13 06:48:24 51°13.668 2°55.934 112.4 2.3 294 -999
2009-07-13 06:48:29 51°13.669 2°55.929 112.8 2.5 295 -999
2009-07-13 06:48:34 51°13.671 2°55.923 112.8 2.7 293 -999
2009-07-13 06:48:39 51°13.672 2°55.918 112.5 2.9 294 -999
2009-07-13 06:48:44 51°13.674 2°55.912 111.8 3 292 -999
2009-07-13 06:48:49 51°13.675 2°55.905 110.5 3.1 291 -999
2009-07-13 06:48:54 51°13.677 2°55.898 109.7 3.2 291 -999
2009-07-13 06:48:59 51°13.678 2°55.891 108.6 3.3 290 -999
2009-07-13 06:49:04 51°13.68 2°55.884 107.5 3.4 289 -999
2009-07-13 06:49:09 51°13.681 2°55.877 106.8 3.5 288 -999
2009-07-13 06:49:14 51°13.683 2°55.869 106.1 3.6 287 -999
2009-07-13 06:49:19 51°13.684 2°55.862 105.4 3.6 287 -999
2009-07-13 06:49:24 51°13.686 2°55.854 104.4 3.5 286 -999
2009-07-13 06:49:29 51°13.687 2°55.847 103.6 3.5 285 -999
2009-07-13 06:49:34 51°13.688 2°55.839 102.4 3.5 284 -999
2009-07-13 06:49:39 51°13.689 2°55.832 101.1 3.4 283 -999
2009-07-13 06:49:44 51°13.69 2°55.825 99.5 3.3 282 -999
2009-07-13 06:49:49 51°13.691 2°55.818 98.3 3.3 282 -999
2009-07-13 06:49:54 51°13.692 2°55.811 96.7 3.2 280 -999
2009-07-13 06:49:59 51°13.692 2°55.804 95.1 3.1 279 -999
2009-07-13 06:50:04 51°13.693 2°55.797 93 2.9 278 -999
2009-07-13 06:50:09 51°13.693 2°55.791 91.8 2.8 276 -999
2009-07-13 06:50:14 51°13.693 2°55.785 90.2 2.7 276 -999
2009-07-13 06:50:19 51°13.694 2°55.779 88.7 2.6 274 -999
2009-07-13 06:50:24 51°13.694 2°55.774 87.2 2.5 273 13.6
2009-07-13 06:50:29 51°13.694 2°55.769 85.8 2.4 273 13.3
2009-07-13 06:50:33 51°13.694 2°55.764 84.6 2.4 271 13.3
2009-07-13 06:50:38 51°13.694 2°55.759 83.5 2.3 270 13.5
2009-07-13 06:50:43 51°13.694 2°55.755 82.3 2.1 269 13.6
2009-07-13 06:50:48 51°13.694 2°55.75 81.3 2 270 13.7
2009-07-13 06:50:53 51°13.694 2°55.746 80.2 1.9 270 13.8
2009-07-13 06:50:57 51°13.694 2°55.743 78.9 1.6 270 14
2009-07-13 06:51:02 51°13.694 2°55.741 77.7 1.3 274 14.1
2009-07-13 06:51:07 51°13.695 2°55.738 75.3 1 276 14
2009-07-13 06:51:12 51°13.695 2°55.737 71.7 0.7 281 13.8
2009-07-13 06:51:17 51°13.695 2°55.736 68 0.6 295 13.7
2009-07-13 06:51:22 51°13.695 2°55.735 64.1 0.4 310 13.6
2009-07-13 06:51:27 51°13.696 2°55.735 61 0.4 344 13.5
2009-07-13 06:51:32 51°13.697 2°55.735 56.2 0.5 5 13.5
2009-07-13 06:51:36 51°13.698 2°55.735 52.1 0.7 4 13.6
2009-07-13 06:51:41 51°13.699 2°55.736 48 0.9 24 13.6
2009-07-13 06:51:46 51°13.701 2°55.736 43.2 1.1 19 13.6
2009-07-13 06:51:51 51°13.702 2°55.737 37.6 1.4 20 13.3
2009-07-13 06:51:56 51°13.704 2°55.738 32 1.6 16 13.2
2009-07-13 06:52:00 51°13.706 2°55.739 26.1 1.8 15 13.4
2009-07-13 06:52:05 51°13.709 2°55.74 20.4 2 10 13.5
2009-07-13 06:52:10 51°13.712 2°55.741 14.7 2.2 6 13.4
2009-07-13 06:52:16 51°13.716 2°55.741 9.2 2.4 1 13.4
2009-07-13 06:52:20 51°13.719 2°55.741 4.9 2.5 357 13.4
2009-07-13 06:52:25 51°13.722 2°55.74 358.3 2.7 351 13.3
2009-07-13 06:52:30 51°13.726 2°55.738 352.8 3 346 13.2
2009-07-13 06:52:35 51°13.731 2°55.736 346.9 3.3 342 13.2
2009-07-13 06:52:40 51°13.735 2°55.733 339.8 3.6 334 12.8
2009-07-13 06:52:45 51°13.74 2°55.728 333.9 3.9 330 12.4
2009-07-13 06:52:51 51°13.746 2°55.722 330.1 4.2 328 12.1
2009-07-13 06:52:55 51°13.75 2°55.718 327.7 4.6 326 12
2009-07-13 06:53:00 51°13.756 2°55.711 326.3 4.9 325 12.4
2009-07-13 06:53:05 51°13.761 2°55.704 326 5.3 325 12
2009-07-13 06:53:11 51°13.769 2°55.695 326 5.6 325 12.6
2009-07-13 06:53:16 51°13.776 2°55.688 326.4 5.9 325 12.4
2009-07-13 06:53:20 51°13.782 2°55.682 327 6.1 326 12.3
2009-07-13 06:53:25 51°13.789 2°55.674 327.9 6.4 326 12.3
2009-07-13 06:53:30 51°13.797 2°55.666 328.7 6.7 327 12.2
2009-07-13 06:53:35 51°13.805 2°55.657 328.9 7.1 327 12.2
2009-07-13 06:53:40 51°13.814 2°55.649 328.9 7.3 327 11.9
2009-07-13 06:53:45 51°13.823 2°55.64 329.6 7.6 328 12.1
2009-07-13 06:53:51 51°13.834 2°55.629 330.3 7.8 329 12.1
2009-07-13 06:53:56 51°13.844 2°55.62 331.4 8 330 11.5
2009-07-13 06:54:00 51°13.852 2°55.613 332.5 8.2 331 11.7
2009-07-13 06:54:05 51°13.862 2°55.604 333.1 8.4 331 12
2009-07-13 06:54:10 51°13.873 2°55.595 333.7 8.5 332 12
2009-07-13 06:54:15 51°13.883 2°55.586 334 8.6 332 12
2009-07-13 06:54:20 51°13.894 2°55.578 334.3 8.7 333 12
2009-07-13 06:54:24 51°13.903 2°55.57 335 8.8 334 12
2009-07-13 06:54:30 51°13.916 2°55.56 336 8.9 334 11.9
2009-07-13 06:54:35 51°13.927 2°55.551 336.1 9 333 12
2009-07-13 06:54:40 51°13.938 2°55.543 336.6 9.1 335 12
2009-07-13 06:54:44 51°13.948 2°55.536 337.2 9.1 335 12
2009-07-13 06:54:50 51°13.962 2°55.526 337.6 9.1 336 11.9
2009-07-13 06:54:55 51°13.973 2°55.517 337.7 9.2 334 12
2009-07-13 06:55:00 51°13.985 2°55.509 337.1 9.2 336 11.7
2009-07-13 06:55:05 51°13.996 2°55.5 337.4 9.2 336 11.7
2009-07-13 06:55:10 51°14.008 2°55.492 337.6 9.3 335 11.8
2009-07-13 06:55:15 51°14.02 2°55.484 338.2 9.3 336 11.5
2009-07-13 06:55:20 51°14.031 2°55.475 338.2 9.3 335 11.7
2009-07-13 06:55:25 51°14.043 2°55.466 337.9 9.3 335 11.8
2009-07-13 06:55:29 51°14.052 2°55.46 338.3 9.3 336 11.8
2009-07-13 06:55:35 51°14.066 2°55.449 338.2 9.3 335 11.8
2009-07-13 06:55:40 51°14.078 2°55.441 337.8 9.4 335 11.8
2009-07-13 06:55:45 51°14.09 2°55.432 338.1 9.4 335 11.6
2009-07-13 06:55:51 51°14.104 2°55.422 338.2 9.4 335 11.7
2009-07-13 06:55:56 51°14.116 2°55.413 338.2 9.4 335 11.8
2009-07-13 06:56:00 51°14.126 2°55.406 337.6 9.4 334 11.8
2009-07-13 06:56:05 51°14.137 2°55.397 337.1 9.4 334 11.8
2009-07-13 06:56:11 51°14.151 2°55.385 336.4 9.4 332 11.8
2009-07-13 06:56:16 51°14.162 2°55.374 334.7 9.4 331 11.8
2009-07-13 06:56:20 51°14.172 2°55.366 333.5 9.5 331 11.8
2009-07-13 06:56:25 51°14.183 2°55.356 332.8 9.4 330 11.8
2009-07-13 06:56:30 51°14.194 2°55.345 331.8 9.5 327 11.9
2009-07-13 06:56:36 51°14.207 2°55.331 330 9.4 326 11.8
2009-07-13 06:56:40 51°14.215 2°55.321 327.9 9.4 324 11.8
2009-07-13 06:56:45 51°14.226 2°55.308 325.6 9.4 321 11.9
2009-07-13 06:56:50 51°14.236 2°55.294 323.1 9.5 319 11.7
2009-07-13 06:56:56 51°14.247 2°55.277 320.9 9.4 317 11.7
2009-07-13 06:57:00 51°14.254 2°55.265 318.2 9.4 314 11.7
2009-07-13 06:57:04 51°14.261 2°55.252 315.5 9.5 313 11.6
2009-07-13 06:57:10 51°14.272 2°55.234 314.3 9.5 312 11.8
2009-07-13 06:57:15 51°14.28 2°55.218 313.6 9.6 311 11.8
2009-07-13 06:57:20 51°14.289 2°55.202 313.4 9.6 311 11.8
2009-07-13 06:57:24 51°14.296 2°55.189 312.9 9.6 310 11.6
2009-07-13 06:57:30 51°14.306 2°55.169 312 9.7 309 11.6
2009-07-13 06:57:35 51°14.315 2°55.152 311 9.8 309 11.8
2009-07-13 06:57:40 51°14.323 2°55.135 311 9.8 309 11.7
2009-07-13 06:57:45 51°14.332 2°55.119 311.5 9.9 309 11.6
2009-07-13 06:57:50 51°14.341 2°55.101 311.5 9.9 308 11.7
2009-07-13 06:57:55 51°14.349 2°55.085 311.5 9.9 309 11.9
2009-07-13 06:58:00 51°14.358 2°55.067 311.2 9.9 308 11.9
2009-07-13 06:58:06 51°14.368 2°55.047 311 10 309 11.2
2009-07-13 06:58:11 51°14.377 2°55.03 311.4 10 309 11.2
2009-07-13 06:58:16 51°14.386 2°55.013 312.2 10.1 311 10.9
2009-07-13 06:58:20 51°14.393 2°54.999 313.3 10.2 311 10.9
2009-07-13 06:58:25 51°14.403 2°54.982 314 10.3 311 11
2009-07-13 06:58:31 51°14.414 2°54.961 314.3 10.4 311 11.1
2009-07-13 06:58:36 51°14.423 2°54.943 313.4 10.5 310 11.2
2009-07-13 06:58:40 51°14.431 2°54.929 312.8 10.6 311 11.1
2009-07-13 06:58:45 51°14.441 2°54.912 313.9 10.6 313 11.3
2009-07-13 06:58:51 51°14.454 2°54.893 317.2 10.5 317 11.3
2009-07-13 06:58:56 51°14.465 2°54.877 319.9 10.6 318 11.4
2009-07-13 06:59:00 51°14.474 2°54.865 321.4 10.7 320 11.3
2009-07-13 06:59:05 51°14.485 2°54.85 322.8 10.7 320 11.2
2009-07-13 06:59:11 51°14.499 2°54.832 323.9 10.8 322 11.2
2009-07-13 06:59:15 51°14.509 2°54.821 325.7 10.9 324 11.2
2009-07-13 06:59:20 51°14.521 2°54.808 328 10.9 327 11.1
2009-07-13 06:59:24 51°14.532 2°54.798 330.5 10.9 328 10.8
2009-07-13 06:59:30 51°14.547 2°54.783 332.4 11 330 11
2009-07-13 06:59:36 51°14.563 2°54.769 333.8 11 331 10.9
2009-07-13 06:59:40 51°14.574 2°54.759 334.4 11 331 10.8
2009-07-13 06:59:44 51°14.585 2°54.749 334 11.1 329 10.8
2009-07-13 06:59:50 51°14.601 2°54.734 333.5 11.1 330 10.7
2009-07-13 06:59:55 51°14.614 2°54.721 333.4 11.2 329 10.8
2009-07-13 07:00:00 51°14.627 2°54.708 332.5 11.2 328 10.7
2009-07-13 07:00:04 51°14.638 2°54.698 331.3 11.2 328 10.6
2009-07-13 07:00:10 51°14.654 2°54.682 331.2 11.2 328 10.7
2009-07-13 07:00:15 51°14.667 2°54.669 331.5 11.3 328 10.6
2009-07-13 07:00:20 51°14.68 2°54.656 331.4 11.3 328 10.7
2009-07-13 07:00:25 51°14.694 2°54.642 331.3 11.4 328 10.9
2009-07-13 07:00:31 51°14.71 2°54.627 331.6 11.4 328 10.7
2009-07-13 07:00:35 51°14.721 2°54.616 331.6 11.5 328 10.8
2009-07-13 07:00:40 51°14.734 2°54.602 331.1 11.6 327 10.7
2009-07-13 07:00:45 51°14.748 2°54.588 330.8 11.6 327 10.5
2009-07-13 07:00:51 51°14.764 2°54.572 330.8 11.6 328 10.5
2009-07-13 07:00:56 51°14.778 2°54.558 331.1 11.7 328 10.4
2009-07-13 07:01:00 51°14.789 2°54.548 331.1 11.7 328 10.6
2009-07-13 07:01:05 51°14.803 2°54.534 331.1 11.6 328 10.4
2009-07-13 07:01:10 51°14.817 2°54.52 330.9 11.7 328 10.7
2009-07-13 07:01:16 51°14.833 2°54.504 330.4 11.7 327 10.4
2009-07-13 07:01:20 51°14.844 2°54.492 330.1 11.8 328 10.3
2009-07-13 07:01:25 51°14.858 2°54.479 330.3 11.7 328 10.3
2009-07-13 07:01:29 51°14.869 2°54.468 331.6 11.7 330 10.4
2009-07-13 07:01:35 51°14.886 2°54.452 331.3 11.6 328 10.2
2009-07-13 07:01:40 51°14.899 2°54.439 330.9 11.6 329 10.2
2009-07-13 07:01:45 51°14.913 2°54.425 330.6 11.6 328 9.9
2009-07-13 07:01:51 51°14.929 2°54.409 330.7 11.5 328 9.6
2009-07-13 07:01:55 51°14.94 2°54.399 331.1 11.5 329 9.4
2009-07-13 07:02:00 51°14.954 2°54.386 331.6 11.4 329 9.4
2009-07-13 07:02:05 51°14.967 2°54.373 332 11.5 329 9.4
2009-07-13 07:02:10 51°14.981 2°54.36 331.8 11.5 329 9.6
2009-07-13 07:02:15 51°14.995 2°54.347 331.1 11.5 328 9.1
2009-07-13 07:02:21 51°15.011 2°54.331 330.7 11.5 329 9.2
2009-07-13 07:02:26 51°15.025 2°54.318 330.7 11.4 328 9.4
2009-07-13 07:02:30 51°15.036 2°54.307 330.5 11.5 328 9.3
2009-07-13 07:02:35 51°15.049 2°54.294 330.3 11.5 328 9.8
2009-07-13 07:02:40 51°15.062 2°54.28 330 11.5 327 10.2
2009-07-13 07:02:45 51°15.076 2°54.267 330 11.5 328 9.8
2009-07-13 07:02:50 51°15.09 2°54.253 330 11.6 327 10.1
2009-07-13 07:02:56 51°15.106 2°54.237 329.9 11.5 328 10.6
2009-07-13 07:03:00 51°15.117 2°54.227 330.4 11.5 328 10.7
2009-07-13 07:03:05 51°15.13 2°54.213 330.1 11.4 326 10.9
2009-07-13 07:03:10 51°15.143 2°54.198 329.6 11.5 327 11.1
2009-07-13 07:03:16 51°15.159 2°54.182 330.2 11.4 328 10.9
2009-07-13 07:03:21 51°15.173 2°54.168 330.8 11.4 328 11.4
2009-07-13 07:03:25 51°15.183 2°54.158 331.4 11.4 330 11.5
2009-07-13 07:03:30 51°15.197 2°54.145 332 11.4 329 11.6
2009-07-13 07:03:35 51°15.21 2°54.131 331.9 11.4 329 11.4
2009-07-13 07:03:40 51°15.224 2°54.118 332.2 11.5 329 11.5
2009-07-13 07:03:45 51°15.237 2°54.105 332.4 11.4 330 11.5
2009-07-13 07:03:50 51°15.251 2°54.092 332.4 11.5 330 11.5
2009-07-13 07:03:55 51°15.264 2°54.079 332.5 11.4 329 11.5
2009-07-13 07:04:00 51°15.278 2°54.066 332.2 11.4 329 11.6
2009-07-13 07:04:05 51°15.291 2°54.053 332 11.4 329 11.6
2009-07-13 07:04:10 51°15.305 2°54.04 331.8 11.4 329 11.6
2009-07-13 07:04:15 51°15.318 2°54.027 331.8 11.4 329 11.7
2009-07-13 07:04:20 51°15.332 2°54.013 331.7 11.5 328 11.4
2009-07-13 07:04:25 51°15.345 2°54 331.6 11.4 329 11.6
2009-07-13 07:04:30 51°15.359 2°53.987 331.8 11.4 329 11.6
2009-07-13 07:04:35 51°15.372 2°53.974 331.3 11.4 328 11.7
2009-07-13 07:04:40 51°15.386 2°53.961 331.2 11.4 328 11.7
2009-07-13 07:04:45 51°15.399 2°53.948 331.1 11.4 328 11.9
2009-07-13 07:04:50 51°15.413 2°53.934 331.2 11.4 328 11.9
2009-07-13 07:04:56 51°15.429 2°53.918 331.6 11.5 328 11.6
2009-07-13 07:05:01 51°15.442 2°53.905 331.8 11.4 328 11.6
2009-07-13 07:05:05 51°15.453 2°53.894 332 11.4 328 11.9
2009-07-13 07:05:10 51°15.466 2°53.881 331.9 11.4 328 11.9
2009-07-13 07:05:15 51°15.48 2°53.868 331.6 11.4 328 12.1
2009-07-13 07:05:20 51°15.493 2°53.855 331.6 11.4 329 12.1
2009-07-13 07:05:25 51°15.507 2°53.841 331.9 11.4 328 12.3
2009-07-13 07:05:30 51°15.52 2°53.828 331.8 11.4 328 12.2
2009-07-13 07:05:35 51°15.533 2°53.815 332 11.4 328 12
2009-07-13 07:05:40 51°15.547 2°53.802 332 11.4 329 11.8
2009-07-13 07:05:45 51°15.56 2°53.789 332.2 11.4 328 12.2
2009-07-13 07:05:50 51°15.574 2°53.775 332.2 11.4 328 12.1
2009-07-13 07:05:56 51°15.59 2°53.759 331.9 11.4 328 11.9
2009-07-13 07:06:01 51°15.603 2°53.745 331.3 11.4 327 12.3
2009-07-13 07:06:05 51°15.614 2°53.735 330.9 11.4 328 12.2
2009-07-13 07:06:10 51°15.628 2°53.721 330.9 11.5 327 12.2
2009-07-13 07:06:15 51°15.641 2°53.708 331 11.6 328 12.1
2009-07-13 07:06:21 51°15.658 2°53.691 331.1 11.6 328 12
2009-07-13 07:06:25 51°15.669 2°53.68 331.4 11.7 328 12.3
2009-07-13 07:06:30 51°15.682 2°53.666 331.1 11.7 327 12.2
2009-07-13 07:06:35 51°15.696 2°53.652 330.6 11.7 328 12.1
2009-07-13 07:06:40 51°15.71 2°53.638 331.2 11.8 329 12.6
2009-07-13 07:06:45 51°15.724 2°53.624 331.7 11.7 329 12.2
2009-07-13 07:06:50 51°15.738 2°53.611 331.8 11.7 329 12.3
2009-07-13 07:06:55 51°15.752 2°53.597 331.8 11.8 329 12.5
2009-07-13 07:07:00 51°15.766 2°53.583 331.8 11.8 328 12.3
2009-07-13 07:07:05 51°15.78 2°53.57 331.8 11.8 329 12.4
2009-07-13 07:07:10 51°15.794 2°53.557 331.8 11.8 329 12.5
2009-07-13 07:07:15 51°15.808 2°53.543 331.7 11.8 328 12.5
2009-07-13 07:07:20 51°15.822 2°53.529 331.4 11.9 328 12.3
2009-07-13 07:07:25 51°15.836 2°53.515 331.7 11.9 330 12.2
2009-07-13 07:07:30 51°15.85 2°53.502 331.8 11.9 329 12.2
2009-07-13 07:07:36 51°15.867 2°53.485 331.6 11.9 328 12.4
2009-07-13 07:07:41 51°15.881 2°53.472 331.6 11.9 329 12.2
2009-07-13 07:07:45 51°15.893 2°53.461 331.8 11.9 329 12.1
2009-07-13 07:07:50 51°15.907 2°53.447 331.6 11.9 329 12.3
2009-07-13 07:07:55 51°15.921 2°53.434 331.6 11.9 329 12.5
2009-07-13 07:08:00 51°15.935 2°53.42 331.9 12 329 12.5
2009-07-13 07:08:05 51°15.95 2°53.407 331.9 11.9 329 12.2
2009-07-13 07:08:10 51°15.964 2°53.393 331.9 11.9 329 12.6
2009-07-13 07:08:16 51°15.981 2°53.377 331.3 11.9 329 12.2
2009-07-13 07:08:21 51°15.995 2°53.363 331.4 11.9 329 12.6
2009-07-13 07:08:25 51°16.006 2°53.352 330.9 11.9 328 12.3
2009-07-13 07:08:30 51°16.02 2°53.337 330.4 12 328 12.3
2009-07-13 07:08:34 51°16.031 2°53.326 330.4 12 328 12.5
2009-07-13 07:08:41 51°16.051 2°53.308 331 11.9 330 12.4
2009-07-13 07:08:45 51°16.062 2°53.297 331.5 12 329 12.5
2009-07-13 07:08:50 51°16.077 2°53.283 331.8 11.9 331 12.3
2009-07-13 07:08:55 51°16.091 2°53.27 332.8 12 330 12.5
2009-07-13 07:09:00 51°16.106 2°53.258 332.9 12 331 12.6
2009-07-13 07:09:05 51°16.12 2°53.245 333.5 12 331 12.3
2009-07-13 07:09:10 51°16.135 2°53.232 333.9 12 332 12.7
2009-07-13 07:09:15 51°16.149 2°53.219 333.5 12 331 12.5
2009-07-13 07:09:21 51°16.167 2°53.204 333.1 12 331 12.7
2009-07-13 07:09:25 51°16.178 2°53.193 332.8 11.9 330 12.5
2009-07-13 07:09:30 51°16.193 2°53.181 333.4 12 332 12.6
2009-07-13 07:09:35 51°16.208 2°53.168 333.7 11.9 331 12.7
2009-07-13 07:09:40 51°16.222 2°53.156 333.9 11.9 332 13
2009-07-13 07:09:45 51°16.237 2°53.143 333.4 12 330 12.7
2009-07-13 07:09:50 51°16.251 2°53.13 333.5 12 332 12.7
2009-07-13 07:09:55 51°16.266 2°53.118 334 12 332 12.8
2009-07-13 07:10:01 51°16.284 2°53.102 333.6 12 331 12.6
2009-07-13 07:10:05 51°16.296 2°53.093 333.4 11.9 333 12.6
2009-07-13 07:10:10 51°16.31 2°53.08 333.9 12 331 12.7
2009-07-13 07:10:16 51°16.328 2°53.066 333.8 12 333 12.6
2009-07-13 07:10:20 51°16.339 2°53.055 334 12 332 12.7
2009-07-13 07:10:25 51°16.355 2°53.045 335.4 12 336 12.6
2009-07-13 07:10:30 51°16.369 2°53.033 336.4 11.9 334 12.6
2009-07-13 07:10:36 51°16.388 2°53.02 336.9 12 336 12.5
2009-07-13 07:10:41 51°16.403 2°53.009 337.5 12 336 12.4
2009-07-13 07:10:45 51°16.415 2°53 337.8 12 336 12.7
2009-07-13 07:10:50 51°16.43 2°52.99 338.4 12 337 12.6
2009-07-13 07:10:54 51°16.443 2°52.981 338.4 11.9 335 12.5
2009-07-13 07:11:01 51°16.464 2°52.966 337.5 11.9 335 12.5
2009-07-13 07:11:05 51°16.476 2°52.957 337.6 12 335 12.7
2009-07-13 07:11:10 51°16.491 2°52.947 337.9 11.9 336 12.4
2009-07-13 07:11:14 51°16.503 2°52.938 338.5 11.9 336 12.4
2009-07-13 07:11:20 51°16.521 2°52.925 338.4 12 336 12.6
2009-07-13 07:11:25 51°16.536 2°52.914 338.6 11.9 337 12.3
2009-07-13 07:11:30 51°16.551 2°52.903 339 11.9 335 12.4
2009-07-13 07:11:35 51°16.566 2°52.893 338.4 11.9 336 12.4
2009-07-13 07:11:40 51°16.581 2°52.881 337.8 12 335 12.5
2009-07-13 07:11:45 51°16.596 2°52.87 337.6 12 335 12.3
2009-07-13 07:11:50 51°16.611 2°52.86 337.8 12 337 12.3
2009-07-13 07:11:55 51°16.627 2°52.849 338.2 12 335 12.1
2009-07-13 07:12:00 51°16.642 2°52.838 338.4 12 337 11.9
2009-07-13 07:12:05 51°16.657 2°52.828 339 11.9 337 11.7
2009-07-13 07:12:10 51°16.672 2°52.817 338.8 11.9 335 11.6
2009-07-13 07:12:16 51°16.691 2°52.805 338.9 11.9 338 11.5
2009-07-13 07:12:20 51°16.703 2°52.796 339.1 11.9 336 11.6
2009-07-13 07:12:25 51°16.718 2°52.786 338.9 12 337 11.4
2009-07-13 07:12:30 51°16.734 2°52.776 339 11.9 337 10.7
2009-07-13 07:12:36 51°16.752 2°52.764 339.5 11.8 337 10.7
2009-07-13 07:12:41 51°16.767 2°52.754 339.2 11.9 337 10.6
2009-07-13 07:12:45 51°16.779 2°52.746 339 11.8 337 10.2
2009-07-13 07:12:50 51°16.794 2°52.736 338.5 11.8 338 10.6
2009-07-13 07:12:56 51°16.812 2°52.723 338.3 11.8 336 10.4
2009-07-13 07:13:01 51°16.827 2°52.713 338.6 11.9 339 10.4
2009-07-13 07:13:05 51°16.839 2°52.704 338.9 11.9 336 10.3
2009-07-13 07:13:10 51°16.854 2°52.694 338.7 11.9 337 10.2
2009-07-13 07:13:15 51°16.869 2°52.683 338.5 11.9 337 10.1
2009-07-13 07:13:21 51°16.888 2°52.672 339.8 11.8 339 10.3
2009-07-13 07:13:25 51°16.9 2°52.664 340 11.8 338 10.4
2009-07-13 07:13:30 51°16.916 2°52.656 341.6 11.9 341 10.4
2009-07-13 07:13:35 51°16.931 2°52.647 342.4 11.9 341 10.7
2009-07-13 07:13:40 51°16.947 2°52.639 343 11.9 342 10.4
2009-07-13 07:13:45 51°16.963 2°52.631 344.5 11.9 343 10.8
2009-07-13 07:13:50 51°16.979 2°52.624 345.3 11.9 344 10.5
2009-07-13 07:13:55 51°16.995 2°52.617 346.3 11.9 347 10.5
2009-07-13 07:14:01 51°17.014 2°52.61 347.7 11.9 346 10.5
2009-07-13 07:14:05 51°17.027 2°52.605 347.9 12 347 10.2
2009-07-13 07:14:10 51°17.043 2°52.599 348.7 11.8 346 10
2009-07-13 07:14:15 51°17.059 2°52.593 348.8 11.8 347 10.4
2009-07-13 07:14:21 51°17.078 2°52.587 349.6 11.8 349 10.5
2009-07-13 07:14:25 51°17.091 2°52.582 349.7 11.7 346 10.4
2009-07-13 07:14:30 51°17.107 2°52.577 350 11.7 348 10.7
2009-07-13 07:14:35 51°17.123 2°52.572 350.3 11.8 349 10.4
2009-07-13 07:14:40 51°17.139 2°52.566 350.9 11.8 348 10.1
2009-07-13 07:14:45 51°17.155 2°52.562 351.4 11.7 350 10.5
2009-07-13 07:14:50 51°17.17 2°52.555 350.9 11.8 347 10.4
2009-07-13 07:14:56 51°17.19 2°52.55 351.4 11.7 351 10.4
2009-07-13 07:15:00 51°17.202 2°52.546 352.2 11.8 348 10.7
2009-07-13 07:15:05 51°17.219 2°52.542 352.8 11.7 351 10.6
2009-07-13 07:15:10 51°17.235 2°52.537 352.9 11.8 349 10.5
2009-07-13 07:15:16 51°17.254 2°52.533 353.8 11.8 353 10.9
2009-07-13 07:15:21 51°17.27 2°52.528 354.1 11.7 350 10.8
2009-07-13 07:15:25 51°17.283 2°52.525 354.2 11.8 351 11.1
2009-07-13 07:15:30 51°17.299 2°52.521 354.4 11.8 351 10.5
2009-07-13 07:15:34 51°17.312 2°52.517 353.5 11.7 350 10.8
2009-07-13 07:15:41 51°17.335 2°52.512 354.1 11.8 352 10.9
2009-07-13 07:15:45 51°17.347 2°52.509 354.3 11.8 351 10.7
2009-07-13 07:15:50 51°17.364 2°52.504 354.2 11.8 349 10.8
2009-07-13 07:15:55 51°17.38 2°52.5 354 11.8 351 10.6
2009-07-13 07:16:01 51°17.399 2°52.494 354 11.8 349 10.6
2009-07-13 07:16:05 51°17.412 2°52.491 354.1 11.8 351 10.8
2009-07-13 07:16:10 51°17.428 2°52.486 353.9 11.7 349 10.8
2009-07-13 07:16:15 51°17.444 2°52.482 354.1 11.8 351 11.3
2009-07-13 07:16:20 51°17.46 2°52.477 353.9 11.8 350 10.7
2009-07-13 07:16:25 51°17.476 2°52.474 354.6 11.7 352 11
2009-07-13 07:16:30 51°17.492 2°52.469 354.9 11.8 351 10.9
2009-07-13 07:16:35 51°17.509 2°52.467 355.7 11.9 353 11
2009-07-13 07:16:40 51°17.525 2°52.463 355.2 11.9 351 10.5
2009-07-13 07:16:45 51°17.541 2°52.459 354.8 11.8 352 10.8
2009-07-13 07:16:50 51°17.558 2°52.455 354.9 11.8 352 11.1
2009-07-13 07:16:56 51°17.577 2°52.451 355.1 11.8 352 10.9
2009-07-13 07:17:01 51°17.593 2°52.448 355.9 11.9 353 11
2009-07-13 07:17:05 51°17.606 2°52.445 355.5 11.9 352 11
2009-07-13 07:17:10 51°17.623 2°52.441 355.2 11.8 353 11.1
2009-07-13 07:17:15 51°17.639 2°52.438 356.1 11.9 353 10.9
2009-07-13 07:17:21 51°17.658 2°52.434 355.6 11.8 352 11.2
2009-07-13 07:17:25 51°17.671 2°52.432 356 11.8 354 11.3
2009-07-13 07:17:30 51°17.688 2°52.428 355.8 11.8 353 11
2009-07-13 07:17:35 51°17.704 2°52.424 355.8 11.9 353 11
2009-07-13 07:17:40 51°17.72 2°52.421 356.5 11.9 353 10.9
2009-07-13 07:17:45 51°17.736 2°52.418 356.2 11.8 352 11.1
2009-07-13 07:17:50 51°17.753 2°52.414 355.5 11.8 353 11
2009-07-13 07:17:55 51°17.769 2°52.411 356.1 11.9 352 11
2009-07-13 07:18:01 51°17.789 2°52.406 356 11.9 352 10.7
2009-07-13 07:18:05 51°17.802 2°52.404 355.9 12 353 11
2009-07-13 07:18:10 51°17.818 2°52.4 355.5 12 351 10.7
2009-07-13 07:18:14 51°17.831 2°52.397 355.2 11.9 353 10.8
2009-07-13 07:18:20 51°17.851 2°52.393 355.9 11.9 352 10.9
2009-07-13 07:18:25 51°17.867 2°52.39 355.1 11.9 354 10.9
2009-07-13 07:18:30 51°17.884 2°52.386 355.6 11.9 351 10.7
2009-07-13 07:18:36 51°17.903 2°52.383 356 11.9 355 11.2
2009-07-13 07:18:40 51°17.916 2°52.382 358 11.8 356 11.1
2009-07-13 07:18:45 51°17.932 2°52.379 358.5 11.8 353 11
2009-07-13 07:18:50 51°17.949 2°52.377 358.3 11.8 357 11
2009-07-13 07:18:56 51°17.968 2°52.375 359.4 11.8 355 11
2009-07-13 07:19:01 51°17.985 2°52.374 0.8 11.9 358 10.8
2009-07-13 07:19:05 51°17.998 2°52.373 0.6 11.8 357 11.2
2009-07-13 07:19:10 51°18.014 2°52.374 2.3 11.8 1 11.2
2009-07-13 07:19:15 51°18.031 2°52.371 0.8 11.9 356 11.1
2009-07-13 07:19:21 51°18.05 2°52.371 1.9 11.9 -999 11.2
2009-07-13 07:19:25 51°18.064 2°52.369 1.6 11.9 357 11.1
2009-07-13 07:19:30 51°18.08 2°52.371 3.1 11.8 1 11.1
2009-07-13 07:19:36 51°18.099 2°52.369 1.7 11.8 356 11.5
2009-07-13 07:19:40 51°18.113 2°52.369 3 11.8 1 11.5
2009-07-13 07:19:45 51°18.129 2°52.367 2.3 11.8 356 11.4
2009-07-13 07:19:50 51°18.145 2°52.367 0.9 11.8 358 11.4
2009-07-13 07:19:56 51°18.165 2°52.365 1.1 11.8 358 11.5
2009-07-13 07:20:01 51°18.181 2°52.364 1.1 11.8 358 11.1
2009-07-13 07:20:05 51°18.195 2°52.364 2.1 11.7 359 11
2009-07-13 07:20:10 51°18.211 2°52.362 2 11.8 356 11
2009-07-13 07:20:16 51°18.231 2°52.362 1.9 11.8 -999 11.4
2009-07-13 07:20:21 51°18.247 2°52.361 1.6 11.8 357 11.5
2009-07-13 07:20:25 51°18.26 2°52.361 1.5 11.8 -999 11
2009-07-13 07:20:30 51°18.276 2°52.36 2.2 11.7 358 11.7
2009-07-13 07:20:35 51°18.293 2°52.359 2.7 11.8 358 11.6
2009-07-13 07:20:41 51°18.312 2°52.358 1.5 11.8 357 11.7
2009-07-13 07:20:45 51°18.325 2°52.358 1.5 11.9 -999 11.6
2009-07-13 07:20:49 51°18.338 2°52.356 1.5 11.8 355 11.5
2009-07-13 07:20:55 51°18.358 2°52.356 2.3 11.8 1 11.6
2009-07-13 07:21:00 51°18.374 2°52.355 3.3 11.9 357 11.7
2009-07-13 07:21:05 51°18.391 2°52.354 1.8 11.9 358 11.5
2009-07-13 07:21:10 51°18.407 2°52.355 3.1 11.8 -999 11.6
2009-07-13 07:21:15 51°18.424 2°52.353 2.1 11.9 358 11.6
2009-07-13 07:21:20 51°18.44 2°52.354 3.1 11.8 1 12.1
2009-07-13 07:21:25 51°18.456 2°52.354 3.7 11.9 1 12.1
2009-07-13 07:21:30 51°18.473 2°52.355 3.2 11.8 1 11.9
2009-07-13 07:21:36 51°18.492 2°52.36 7.9 11.7 9 12.1
2009-07-13 07:21:40 51°18.505 2°52.362 9.7 11.7 8 11.8
2009-07-13 07:21:45 51°18.521 2°52.368 13.2 11.7 11 11.7
2009-07-13 07:21:50 51°18.537 2°52.374 15.6 11.8 13 11.9
2009-07-13 07:21:56 51°18.556 2°52.38 15.4 11.8 12 11.9
2009-07-13 07:22:01 51°18.571 2°52.388 17.2 11.7 16 12
2009-07-13 07:22:05 51°18.584 2°52.392 18.2 11.7 13 12
2009-07-13 07:22:10 51°18.6 2°52.4 19.6 11.8 17 12.2
2009-07-13 07:22:14 51°18.612 2°52.405 20.2 11.8 15 12.2
2009-07-13 07:22:21 51°18.634 2°52.416 20.7 11.9 17 12.1
2009-07-13 07:22:25 51°18.647 2°52.422 20.3 11.9 17 12.2
2009-07-13 07:22:30 51°18.662 2°52.429 21 11.8 17 12.1
2009-07-13 07:22:34 51°18.675 2°52.436 21.8 11.8 19 12.4
2009-07-13 07:22:41 51°18.697 2°52.447 21.5 11.9 16 12.2
2009-07-13 07:22:45 51°18.709 2°52.453 21.7 11.8 18 12.1
2009-07-13 07:22:50 51°18.725 2°52.461 21.9 11.9 17 12.3
2009-07-13 07:22:56 51°18.743 2°52.472 22.7 11.9 20 12.4
2009-07-13 07:23:01 51°18.759 2°52.479 21.9 12 15 12.4
2009-07-13 07:23:05 51°18.771 2°52.486 22.5 11.9 21 12.5
2009-07-13 07:23:10 51°18.787 2°52.493 22.6 12 16 12.5
2009-07-13 07:23:15 51°18.803 2°52.502 22.6 11.9 19 12.6
2009-07-13 07:23:20 51°18.819 2°52.51 22.3 11.9 18 12.6
2009-07-13 07:23:25 51°18.834 2°52.518 22.8 12 18 12.7
2009-07-13 07:23:30 51°18.85 2°52.527 22.6 11.9 19 12.6
2009-07-13 07:23:36 51°18.869 2°52.537 23 11.9 19 12.8
2009-07-13 07:23:41 51°18.885 2°52.546 23.1 12 19 12.8
2009-07-13 07:23:45 51°18.897 2°52.552 22.9 12 18 12.9
2009-07-13 07:23:50 51°18.913 2°52.56 22.3 11.9 19 13.2
2009-07-13 07:23:56 51°18.932 2°52.57 22.9 11.9 17 13.1
2009-07-13 07:24:01 51°18.947 2°52.578 21.6 11.9 17 13.2
2009-07-13 07:24:05 51°18.96 2°52.585 22.4 11.9 19 13.2
2009-07-13 07:24:10 51°18.976 2°52.592 21.5 12 17 13.2
2009-07-13 07:24:14 51°18.988 2°52.6 22.5 11.9 19 13.2
2009-07-13 07:24:21 51°19.011 2°52.611 22.6 12 18 13.3
2009-07-13 07:24:25 51°19.023 2°52.617 21.1 11.9 17 13.4
2009-07-13 07:24:30 51°19.039 2°52.625 22.1 12 18 13.4
2009-07-13 07:24:35 51°19.055 2°52.633 21.2 11.9 17 13.4
2009-07-13 07:24:41 51°19.073 2°52.643 21.8 11.9 19 13.3
2009-07-13 07:24:45 51°19.086 2°52.648 22.1 11.9 15 13.5
2009-07-13 07:24:50 51°19.102 2°52.657 22.3 11.9 19 13.4
2009-07-13 07:24:55 51°19.117 2°52.665 21.4 11.8 18 13.4
2009-07-13 07:25:01 51°19.136 2°52.673 21.9 11.8 16 13.4
2009-07-13 07:25:05 51°19.149 2°52.68 22.1 11.8 18 13.8
2009-07-13 07:25:09 51°19.161 2°52.686 21.2 11.8 16 13.7
2009-07-13 07:25:15 51°19.18 2°52.696 21.5 11.8 19 13.8
2009-07-13 07:25:21 51°19.199 2°52.704 21.2 11.8 15 13.9
2009-07-13 07:25:25 51°19.212 2°52.712 22.5 11.9 19 13.7
2009-07-13 07:25:29 51°19.224 2°52.717 21.3 12 16 14
2009-07-13 07:25:35 51°19.243 2°52.725 20.6 11.9 16 14
2009-07-13 07:25:40 51°19.259 2°52.734 21.9 11.9 18 14
2009-07-13 07:25:45 51°19.275 2°52.74 21.2 11.9 14 13.9
2009-07-13 07:25:50 51°19.291 2°52.749 21 11.9 18 14
2009-07-13 07:25:55 51°19.307 2°52.755 20.1 11.8 15 14.1
2009-07-13 07:26:00 51°19.322 2°52.763 20.2 11.9 16 14.3
2009-07-13 07:26:05 51°19.338 2°52.77 20.7 11.9 16 14.2
2009-07-13 07:26:10 51°19.354 2°52.778 20.6 11.9 17 14.2
2009-07-13 07:26:16 51°19.373 2°52.786 21.1 12 15 14.2
2009-07-13 07:26:20 51°19.386 2°52.793 20.8 11.9 18 14.5
2009-07-13 07:26:25 51°19.401 2°52.8 20.4 11.8 17 14.7
2009-07-13 07:26:30 51°19.417 2°52.807 20.1 11.9 14 14.6
2009-07-13 07:26:36 51°19.436 2°52.816 19.9 11.8 17 14.3
2009-07-13 07:26:41 51°19.452 2°52.824 21.2 11.8 18 14.7
2009-07-13 07:26:45 51°19.465 2°52.828 18.5 11.8 13 15.1
2009-07-13 07:26:50 51°19.48 2°52.836 19.6 11.6 18 14.9
2009-07-13 07:26:56 51°19.499 2°52.844 20.7 11.8 15 15.1
2009-07-13 07:27:01 51°19.515 2°52.851 19.8 11.7 15 14.9
2009-07-13 07:27:05 51°19.527 2°52.857 20.6 11.7 18 15
2009-07-13 07:27:10 51°19.543 2°52.863 19.5 11.8 14 15
2009-07-13 07:27:15 51°19.559 2°52.872 20.5 11.8 18 15.1
2009-07-13 07:27:21 51°19.578 2°52.88 20.1 11.8 14 15.2
2009-07-13 07:27:25 51°19.59 2°52.886 20.8 11.8 17 15.4
2009-07-13 07:27:30 51°19.605 2°52.892 20 11.7 16 15.1
2009-07-13 07:27:36 51°19.624 2°52.901 21 11.8 16 15.3
2009-07-13 07:27:40 51°19.637 2°52.906 19.8 11.9 14 15.3
2009-07-13 07:27:45 51°19.653 2°52.914 21.1 11.8 17 15.1
2009-07-13 07:27:50 51°19.669 2°52.921 20.1 11.9 14 15.2
2009-07-13 07:27:56 51°19.688 2°52.929 19.4 11.8 15 15.3
2009-07-13 07:28:01 51°19.704 2°52.935 19.3 11.9 14 15.4
2009-07-13 07:28:05 51°19.716 2°52.942 20.4 11.9 17 15.4
2009-07-13 07:28:10 51°19.732 2°52.947 19.6 11.8 12 15.4
2009-07-13 07:28:16 51°19.751 2°52.957 20.3 11.8 17 15.4
2009-07-13 07:28:21 51°19.767 2°52.963 20.1 11.9 15 15.5
2009-07-13 07:28:25 51°19.779 2°52.969 19.7 11.7 16 15.6
2009-07-13 07:28:30 51°19.795 2°52.977 21.1 11.7 19 15.9
2009-07-13 07:28:35 51°19.811 2°52.982 19.1 11.7 11 15.7
2009-07-13 07:28:41 51°19.829 2°52.993 21 11.7 20 15.8
2009-07-13 07:28:45 51°19.841 2°52.998 21.9 11.7 15 15.8
2009-07-13 07:28:49 51°19.854 2°53.003 19.5 11.6 15 16.1
2009-07-13 07:28:55 51°19.872 2°53.013 21.2 11.6 18 15.9
2009-07-13 07:29:01 51°19.891 2°53.021 21.2 11.7 16 16.1
2009-07-13 07:29:05 51°19.903 2°53.026 20 11.6 15 16.1
2009-07-13 07:29:10 51°19.919 2°53.035 20.4 11.7 19 16.2
2009-07-13 07:29:15 51°19.934 2°53.041 19.8 11.7 16 16.3
2009-07-13 07:29:20 51°19.95 2°53.05 20.4 11.7 18 16.3
2009-07-13 07:29:25 51°19.965 2°53.057 20.2 11.8 17 16.4
2009-07-13 07:29:30 51°19.981 2°53.065 20.9 11.8 17 16.1
2009-07-13 07:29:35 51°19.997 2°53.073 20.5 11.9 18 16.4
2009-07-13 07:29:41 51°20.015 2°53.082 19.8 11.8 17 16.3
2009-07-13 07:29:45 51°20.028 2°53.089 20.6 11.8 18 16.4
2009-07-13 07:29:50 51°20.044 2°53.097 20.2 11.9 18 16.5
2009-07-13 07:29:55 51°20.059 2°53.105 20.2 11.8 17 16.4
2009-07-13 07:30:00 51°20.075 2°53.114 20.7 12 21 16.5
2009-07-13 07:30:05 51°20.091 2°53.12 20.5 11.9 14 16.2
2009-07-13 07:30:10 51°20.106 2°53.13 21.2 11.9 21 16
2009-07-13 07:30:15 51°20.121 2°53.138 20.7 11.8 17 16.4
2009-07-13 07:30:20 51°20.137 2°53.145 19.8 11.8 18 16.5
2009-07-13 07:30:25 51°20.153 2°53.154 20.9 11.9 18 16.4
2009-07-13 07:30:30 51°20.169 2°53.16 18.9 11.9 15 16.5
2009-07-13 07:30:36 51°20.187 2°53.172 20 11.9 22 16.9
2009-07-13 07:30:41 51°20.203 2°53.177 19.4 11.8 12 16.6
2009-07-13 07:30:45 51°20.215 2°53.186 21 11.8 23 16.6
2009-07-13 07:30:50 51°20.231 2°53.192 20.9 11.7 14 16.5
2009-07-13 07:30:55 51°20.247 2°53.202 21 11.8 20 16.5
2009-07-13 07:31:01 51°20.265 2°53.21 19.8 11.8 15 16.6
2009-07-13 07:31:05 51°20.278 2°53.218 21.1 11.8 21 16.7
2009-07-13 07:31:10 51°20.293 2°53.224 21.2 11.8 15 16.8
2009-07-13 07:31:15 51°20.309 2°53.233 19.9 11.7 19 16.6
2009-07-13 07:31:20 51°20.324 2°53.241 21.9 11.8 18 16.6
2009-07-13 07:31:25 51°20.34 2°53.248 20.9 11.8 17 16.5
2009-07-13 07:31:30 51°20.355 2°53.258 21.4 11.8 20 16.6
2009-07-13 07:31:35 51°20.371 2°53.265 21 11.8 17 16.7
2009-07-13 07:31:41 51°20.389 2°53.276 21.7 11.7 20 16.5
2009-07-13 07:31:45 51°20.402 2°53.282 21.1 11.8 17 16.7
2009-07-13 07:31:50 51°20.417 2°53.291 20.9 11.8 20 16.7
2009-07-13 07:31:56 51°20.436 2°53.3 20.7 11.8 18 16.8
2009-07-13 07:32:01 51°20.452 2°53.308 20.4 11.8 18 16.6
2009-07-13 07:32:05 51°20.464 2°53.314 20.4 11.8 17 16.6
2009-07-13 07:32:10 51°20.48 2°53.324 20.9 11.8 21 16.6
2009-07-13 07:32:15 51°20.495 2°53.33 20.4 11.7 14 16.6
2009-07-13 07:32:21 51°20.514 2°53.341 20.7 11.8 21 16.7
2009-07-13 07:32:25 51°20.526 2°53.347 20.9 11.7 17 16.8
2009-07-13 07:32:30 51°20.541 2°53.357 20.9 11.8 22 17
2009-07-13 07:32:35 51°20.557 2°53.363 20.4 11.6 15 16.8
2009-07-13 07:32:41 51°20.575 2°53.375 20.8 11.7 21 16.8
2009-07-13 07:32:45 51°20.587 2°53.38 21.3 11.7 17 16.8
2009-07-13 07:32:49 51°20.6 2°53.386 20.7 11.8 18 16.7
2009-07-13 07:32:55 51°20.618 2°53.396 21 11.7 19 16.4
2009-07-13 07:33:01 51°20.637 2°53.406 21.5 11.8 18 16.7
2009-07-13 07:33:05 51°20.649 2°53.414 21.1 11.8 20 16.9
2009-07-13 07:33:10 51°20.664 2°53.421 21.2 11.7 18 16.9
2009-07-13 07:33:16 51°20.683 2°53.433 22 11.7 21 17.2
2009-07-13 07:33:21 51°20.698 2°53.441 21.4 11.7 19 17.1
2009-07-13 07:33:25 51°20.71 2°53.448 22.9 11.7 19 16.8
2009-07-13 07:33:30 51°20.725 2°53.456 21.5 11.7 18 16.9
2009-07-13 07:33:35 51°20.741 2°53.464 20.8 11.6 19 16.9
2009-07-13 07:33:40 51°20.756 2°53.473 22 11.7 20 16.8
2009-07-13 07:33:45 51°20.772 2°53.48 21.1 11.7 16 16.6
2009-07-13 07:33:50 51°20.787 2°53.489 22.4 11.7 21 16.5
2009-07-13 07:33:55 51°20.802 2°53.496 20.6 11.6 16 16.9
2009-07-13 07:34:01 51°20.82 2°53.508 20.8 11.7 22 16.8
2009-07-13 07:34:05 51°20.833 2°53.512 21.6 11.7 15 16.4
2009-07-13 07:34:10 51°20.848 2°53.522 21.4 11.7 21 16.7
2009-07-13 07:34:16 51°20.867 2°53.53 20.5 11.6 16 16.7
2009-07-13 07:34:20 51°20.879 2°53.537 21.1 11.7 19 16.7
2009-07-13 07:34:25 51°20.894 2°53.545 21.1 11.6 18 16.7
2009-07-13 07:34:30 51°20.91 2°53.552 20.5 11.7 17 16.9
2009-07-13 07:34:36 51°20.928 2°53.563 20.7 11.7 19 16.6
2009-07-13 07:34:41 51°20.944 2°53.57 22.1 11.8 18 16.9
2009-07-13 07:34:45 51°20.956 2°53.576 20 11.8 16 16.7
2009-07-13 07:34:50 51°20.971 2°53.586 21.6 11.8 21 16.9
2009-07-13 07:34:55 51°20.987 2°53.592 20.8 11.7 15 16.8
2009-07-13 07:35:01 51°21.005 2°53.602 21 11.6 20 17
2009-07-13 07:35:05 51°21.018 2°53.608 20.8 11.6 18 17
2009-07-13 07:35:09 51°21.029 2°53.616 22.6 11.6 20 17
2009-07-13 07:35:15 51°21.048 2°53.624 21.9 11.7 16 16.9
2009-07-13 07:35:21 51°21.066 2°53.635 21.3 11.6 19 16.9
2009-07-13 07:35:25 51°21.078 2°53.641 21.9 11.6 18 17.2
2009-07-13 07:35:29 51°21.091 2°53.646 20.4 11.6 18 17.4
2009-07-13 07:35:36 51°21.112 2°53.66 22.4 11.7 21 16.9
2009-07-13 07:35:40 51°21.125 2°53.664 21.3 11.7 13 16.7
2009-07-13 07:35:45 51°21.14 2°53.672 20.4 11.6 19 16.5
2009-07-13 07:35:50 51°21.155 2°53.681 22.1 11.6 21 16.6
2009-07-13 07:35:55 51°21.171 2°53.687 19.4 11.6 15 17
2009-07-13 07:36:00 51°21.186 2°53.696 20.6 11.5 21 17
2009-07-13 07:36:05 51°21.201 2°53.703 21.8 11.5 18 17.1
2009-07-13 07:36:10 51°21.216 2°53.71 20.7 11.4 15 16.7
2009-07-13 07:36:15 51°21.231 2°53.721 23.1 11.6 23 16.7
2009-07-13 07:36:21 51°21.25 2°53.727 21.2 11.6 12 16.8
2009-07-13 07:36:25 51°21.262 2°53.735 21.2 11.6 21 16.8
2009-07-13 07:36:30 51°21.277 2°53.741 20.5 11.5 15 16.9
2009-07-13 07:36:35 51°21.293 2°53.749 21.7 11.7 17 16.6
2009-07-13 07:36:40 51°21.308 2°53.757 21.1 11.6 17 16.7
2009-07-13 07:36:45 51°21.323 2°53.766 22.1 11.6 20 16.9
2009-07-13 07:36:50 51°21.339 2°53.772 21.6 11.6 15 17.1
2009-07-13 07:36:56 51°21.357 2°53.783 21.5 11.6 20 17.1
2009-07-13 07:37:01 51°21.372 2°53.79 21.3 11.6 17 17.1
2009-07-13 07:37:05 51°21.385 2°53.796 22.1 11.7 18 16.9
2009-07-13 07:37:10 51°21.4 2°53.804 20.9 11.7 18 17
2009-07-13 07:37:15 51°21.416 2°53.811 21.2 11.7 16 16.9
2009-07-13 07:37:21 51°21.434 2°53.821 21.1 11.6 18 16.6
2009-07-13 07:37:25 51°21.446 2°53.828 22.7 11.6 20 16.8
2009-07-13 07:37:30 51°21.462 2°53.834 21 11.6 15 16.8
2009-07-13 07:37:35 51°21.477 2°53.843 21.9 11.6 20 17.1
2009-07-13 07:37:41 51°21.496 2°53.851 21.4 11.6 15 17
2009-07-13 07:37:45 51°21.508 2°53.859 21.8 11.7 20 17
2009-07-13 07:37:49 51°21.52 2°53.864 21.1 11.7 15 16.9
2009-07-13 07:37:56 51°21.542 2°53.876 21.4 11.7 19 16.9
2009-07-13 07:38:00 51°21.554 2°53.882 22.3 11.7 17 16.7
2009-07-13 07:38:05 51°21.569 2°53.891 22.4 11.6 20 16.8
2009-07-13 07:38:10 51°21.584 2°53.9 24 11.6 21 16.8
2009-07-13 07:38:15 51°21.6 2°53.909 23.9 11.7 19 17
2009-07-13 07:38:21 51°21.617 2°53.922 25 11.6 25 17.3
2009-07-13 07:38:25 51°21.63 2°53.928 24.8 11.6 19 17.2
2009-07-13 07:38:30 51°21.644 2°53.94 26.9 11.6 27 17.2
2009-07-13 07:38:35 51°21.659 2°53.948 26.9 11.7 20 17.1
2009-07-13 07:38:41 51°21.677 2°53.962 26.6 11.6 26 17
2009-07-13 07:38:45 51°21.689 2°53.969 27.7 11.6 23 17
2009-07-13 07:38:50 51°21.704 2°53.98 27.5 11.7 23 17.2
2009-07-13 07:38:55 51°21.719 2°53.991 27.7 11.7 24 17
2009-07-13 07:39:00 51°21.734 2°54.002 27.7 11.8 25 16.9
2009-07-13 07:39:05 51°21.748 2°54.012 28.1 11.8 24 16.8
2009-07-13 07:39:10 51°21.763 2°54.024 29.1 11.7 26 17
2009-07-13 07:39:16 51°21.781 2°54.037 29.1 11.7 25 17.1
2009-07-13 07:39:21 51°21.795 2°54.048 29 11.8 25 17.2
2009-07-13 07:39:25 51°21.807 2°54.056 28.4 11.8 24 17.3
2009-07-13 07:39:30 51°21.822 2°54.068 29.2 11.8 26 17.5
2009-07-13 07:39:36 51°21.84 2°54.081 29.2 11.7 25 17.8
2009-07-13 07:39:41 51°21.854 2°54.092 28.3 11.7 25 17.6
2009-07-13 07:39:45 51°21.865 2°54.102 30.4 11.6 27 17.8
2009-07-13 07:39:50 51°21.881 2°54.111 27.8 11.7 23 17.9
2009-07-13 07:39:56 51°21.898 2°54.125 29.7 11.6 28 17.6
2009-07-13 07:40:00 51°21.91 2°54.133 28.1 11.8 22 18.1
2009-07-13 07:40:05 51°21.924 2°54.145 28.6 11.7 27 18.2
2009-07-13 07:40:10 51°21.939 2°54.155 29.2 11.6 23 18.4
2009-07-13 07:40:16 51°21.957 2°54.169 27.8 11.6 26 18.7
2009-07-13 07:40:21 51°21.971 2°54.179 29.9 11.6 25 18.6
2009-07-13 07:40:25 51°21.983 2°54.188 29 11.8 26 19.2
2009-07-13 07:40:30 51°21.998 2°54.198 28.6 11.7 23 18.8
2009-07-13 07:40:36 51°22.015 2°54.213 29.9 11.7 29 19.3
2009-07-13 07:40:41 51°22.03 2°54.222 27.4 11.6 21 19
2009-07-13 07:40:45 51°22.041 2°54.232 30.4 11.6 29 19
2009-07-13 07:40:50 51°22.056 2°54.243 30.2 11.7 24 18.7
2009-07-13 07:40:56 51°22.074 2°54.257 29.8 11.8 27 19.1
2009-07-13 07:41:01 51°22.088 2°54.268 29.8 11.7 25 19
2009-07-13 07:41:05 51°22.099 2°54.277 31 11.6 26 18.8
2009-07-13 07:41:10 51°22.114 2°54.288 30.1 11.6 26 18.9
2009-07-13 07:41:15 51°22.128 2°54.3 30.3 11.7 27 18.7
2009-07-13 07:41:21 51°22.146 2°54.313 31.2 11.7 25 18.3
2009-07-13 07:41:25 51°22.158 2°54.324 31.3 11.8 29 18.3
2009-07-13 07:41:29 51°22.169 2°54.333 30.9 11.7 25 18.6
2009-07-13 07:41:35 51°22.186 2°54.348 32.5 11.7 31 18.7
2009-07-13 07:41:41 51°22.204 2°54.361 32 11.6 24 18.5
2009-07-13 07:41:45 51°22.215 2°54.372 31.1 11.7 31 18.5
2009-07-13 07:41:50 51°22.229 2°54.385 34.2 11.5 27 18.4
2009-07-13 07:41:55 51°22.243 2°54.397 31.8 11.6 29 18.8
2009-07-13 07:42:00 51°22.257 2°54.411 33 11.6 31 18.6
2009-07-13 07:42:05 51°22.271 2°54.423 34.6 11.7 30 18.3
2009-07-13 07:42:10 51°22.285 2°54.436 34.4 11.6 30 18.5
2009-07-13 07:42:16 51°22.301 2°54.453 34.9 11.7 33 18.5
2009-07-13 07:42:21 51°22.315 2°54.466 35.3 11.7 31 18.8
2009-07-13 07:42:25 51°22.326 2°54.477 35.1 11.6 32 18.6
2009-07-13 07:42:30 51°22.339 2°54.492 36.9 11.7 37 18.8
2009-07-13 07:42:36 51°22.356 2°54.507 34.5 11.7 28 18.7
2009-07-13 07:42:41 51°22.369 2°54.523 38.7 11.6 39 18.4
2009-07-13 07:42:45 51°22.38 2°54.533 37.7 11.6 31 18.9
2009-07-13 07:42:50 51°22.393 2°54.548 36.9 11.5 35 19.2
2009-07-13 07:42:55 51°22.406 2°54.563 39.8 11.4 36 19.3
2009-07-13 07:43:01 51°22.422 2°54.58 38.9 11.5 33 19.5
2009-07-13 07:43:05 51°22.432 2°54.593 39.4 11.6 37 19.4
2009-07-13 07:43:10 51°22.445 2°54.608 40.4 11.7 36 19.5
2009-07-13 07:43:16 51°22.461 2°54.626 40.1 11.8 37 19.6
2009-07-13 07:43:21 51°22.474 2°54.641 40.3 11.7 34 19.5
2009-07-13 07:43:25 51°22.484 2°54.654 41.1 11.8 39 19.5
2009-07-13 07:43:30 51°22.498 2°54.668 38.5 11.8 32 19.4
2009-07-13 07:43:35 51°22.511 2°54.683 38.4 11.7 36 19.4
2009-07-13 07:43:41 51°22.527 2°54.7 38.1 11.7 34 19.5
2009-07-13 07:43:45 51°22.538 2°54.711 37.1 11.6 33 19.3
2009-07-13 07:43:50 51°22.551 2°54.726 37.7 11.7 34 19.6
2009-07-13 07:43:55 51°22.565 2°54.74 36.7 11.7 33 19.7
2009-07-13 07:44:00 51°22.579 2°54.754 36.8 11.7 33 19.6
2009-07-13 07:44:05 51°22.593 2°54.768 36.2 11.7 31 19.7
2009-07-13 07:44:10 51°22.606 2°54.782 36.6 11.6 34 19.9
2009-07-13 07:44:16 51°22.623 2°54.798 36.4 11.6 31 19.9
2009-07-13 07:44:20 51°22.634 2°54.809 35.7 11.6 32 19.9
2009-07-13 07:44:25 51°22.647 2°54.823 37.1 11.7 33 19.9
2009-07-13 07:44:30 51°22.661 2°54.836 35.7 11.7 31 19.9
2009-07-13 07:44:36 51°22.677 2°54.854 37.2 11.6 35 20.1
2009-07-13 07:44:41 51°22.692 2°54.865 35.1 11.7 27 20.3
2009-07-13 07:44:45 51°22.702 2°54.878 35.9 11.5 35 20.3
2009-07-13 07:44:50 51°22.716 2°54.889 35.7 11.5 28 19.9
2009-07-13 07:44:55 51°22.729 2°54.903 35.6 11.5 33 20
2009-07-13 07:45:01 51°22.746 2°54.92 36 11.5 32 20.1
2009-07-13 07:45:05 51°22.757 2°54.93 36.1 11.6 31 20.3
2009-07-13 07:45:10 51°22.771 2°54.944 35.7 11.6 31 19.9
2009-07-13 07:45:15 51°22.785 2°54.957 36.2 11.7 32 19.4
2009-07-13 07:45:21 51°22.801 2°54.974 35.9 11.7 33 19.5
2009-07-13 07:45:25 51°22.812 2°54.985 35.5 11.7 33 19.9
2009-07-13 07:45:29 51°22.823 2°54.996 34.7 11.7 30 19.7
2009-07-13 07:45:35 51°22.84 2°55.011 34.2 11.8 30 19.5
2009-07-13 07:45:41 51°22.857 2°55.028 35.5 11.8 32 19.3
2009-07-13 07:45:45 51°22.868 2°55.038 34.4 11.9 29 19.5
2009-07-13 07:45:50 51°22.882 2°55.052 34.2 11.8 32 19.5
2009-07-13 07:45:56 51°22.899 2°55.068 35.6 11.9 32 19.4
2009-07-13 07:46:01 51°22.913 2°55.08 34 11.8 28 19.4
2009-07-13 07:46:05 51°22.924 2°55.092 35 11.8 34 19.5
2009-07-13 07:46:10 51°22.938 2°55.105 35.4 11.8 29 19.4
2009-07-13 07:46:15 51°22.952 2°55.119 35.1 11.8 34 19.4
2009-07-13 07:46:20 51°22.967 2°55.131 34.2 11.7 27 19.2
2009-07-13 07:46:25 51°22.98 2°55.146 35 11.7 34 19.7
2009-07-13 07:46:31 51°22.997 2°55.161 34.5 11.7 29 19.6
2009-07-13 07:46:36 51°23.011 2°55.175 35.7 11.8 32 19.5
2009-07-13 07:46:40 51°23.022 2°55.185 34.6 11.8 29 19.3
2009-07-13 07:46:45 51°23.036 2°55.2 36.1 11.9 35 19.3
2009-07-13 07:46:50 51°23.051 2°55.211 34.8 11.9 26 19.2
2009-07-13 07:46:54 51°23.061 2°55.223 35.3 11.7 35 19.1
2009-07-13 07:47:01 51°23.081 2°55.242 36.6 11.6 32 19.4
2009-07-13 07:47:05 51°23.092 2°55.252 33.5 11.7 29 19.5
2009-07-13 07:47:10 51°23.105 2°55.268 36.9 11.8 38 19.5
2009-07-13 07:47:16 51°23.123 2°55.282 36.6 11.8 26 19.4
2009-07-13 07:47:21 51°23.136 2°55.298 33.3 11.8 33 19.8
2009-07-13 07:47:25 51°23.147 2°55.309 37.1 11.7 35 19.6
2009-07-13 07:47:30 51°23.161 2°55.322 36.7 11.8 30 19.3
2009-07-13 07:47:35 51°23.175 2°55.336 35.3 11.9 33 19.4
2009-07-13 07:47:41 51°23.191 2°55.353 37.8 11.7 34 19.3
2009-07-13 07:47:45 51°23.203 2°55.364 35.8 12 31 19.2
2009-07-13 07:47:50 51°23.216 2°55.379 36.5 11.9 34 19.5
2009-07-13 07:47:56 51°23.233 2°55.395 36.4 11.9 31 19.1
2009-07-13 07:48:00 51°23.244 2°55.407 36.4 11.9 33 19
2009-07-13 07:48:05 51°23.258 2°55.42 35.5 11.7 31 18.9
2009-07-13 07:48:10 51°23.271 2°55.436 37 11.7 36 18.8
2009-07-13 07:48:16 51°23.289 2°55.45 35.3 11.8 28 19.4
2009-07-13 07:48:21 51°23.301 2°55.467 36.1 11.7 37 19.4
2009-07-13 07:48:25 51°23.313 2°55.475 34.5 11.7 26 19.1
2009-07-13 07:48:30 51°23.327 2°55.489 34.6 11.8 34 18.9
2009-07-13 07:48:36 51°23.344 2°55.505 35.8 11.7 30 18.9
2009-07-13 07:48:41 51°23.357 2°55.52 34.4 11.9 33 18.5
2009-07-13 07:48:45 51°23.369 2°55.53 35.2 11.8 29 18.8
2009-07-13 07:48:50 51°23.383 2°55.544 34.8 11.9 33 18.2
2009-07-13 07:48:55 51°23.397 2°55.556 33.7 11.7 28 18.2
2009-07-13 07:49:01 51°23.413 2°55.574 36.2 11.8 36 18.7
2009-07-13 07:49:05 51°23.425 2°55.582 34.1 11.9 25 19.1
2009-07-13 07:49:10 51°23.439 2°55.598 35.7 11.9 35 17.7
2009-07-13 07:49:15 51°23.453 2°55.61 34.2 11.8 29 15.7
2009-07-13 07:49:21 51°23.469 2°55.627 36.1 11.8 33 18.8
2009-07-13 07:49:25 51°23.481 2°55.638 34.9 11.7 30 18.7
2009-07-13 07:49:30 51°23.495 2°55.651 34.6 11.8 31 17.9
2009-07-13 07:49:35 51°23.509 2°55.665 34.8 12 30 15.3
2009-07-13 07:49:41 51°23.526 2°55.68 34.6 11.8 30 17.7
2009-07-13 07:49:45 51°23.537 2°55.692 35.5 11.9 34 18.3
2009-07-13 07:49:50 51°23.551 2°55.705 35 11.9 28 18.4
2009-07-13 07:49:55 51°23.565 2°55.719 35 11.8 33 17.5
2009-07-13 07:50:01 51°23.582 2°55.736 36 11.9 30 15.7
2009-07-13 07:50:05 51°23.594 2°55.746 33.9 11.8 30 17.3
2009-07-13 07:50:10 51°23.607 2°55.761 35.7 11.9 34 18.2
2009-07-13 07:50:15 51°23.622 2°55.773 35 12 28 17.2
2009-07-13 07:50:20 51°23.636 2°55.787 33.5 11.7 31 16.6
2009-07-13 07:50:25 51°23.649 2°55.801 35.5 11.8 34 16.3
2009-07-13 07:50:31 51°23.667 2°55.815 33.7 11.7 26 16.9
2009-07-13 07:50:35 51°23.677 2°55.828 36 11.7 37 17.2
2009-07-13 07:50:40 51°23.691 2°55.84 36 11.7 26 18
2009-07-13 07:50:45 51°23.705 2°55.853 32.6 11.6 34 16
2009-07-13 07:50:50 51°23.718 2°55.868 37.1 11.6 32 16.4
2009-07-13 07:50:56 51°23.735 2°55.884 34.7 11.8 30 17.4
2009-07-13 07:51:01 51°23.749 2°55.895 35.6 11.5 30 15.3
2009-07-13 07:51:05 51°23.76 2°55.907 34.5 11.5 34 16.8
2009-07-13 07:51:10 51°23.773 2°55.921 36.7 11.7 31 17.4
2009-07-13 07:51:15 51°23.788 2°55.933 34.6 11.8 29 15.5
2009-07-13 07:51:21 51°23.805 2°55.95 35.3 11.7 32 15.9
2009-07-13 07:51:25 51°23.816 2°55.96 34.7 11.8 28 16.8
2009-07-13 07:51:30 51°23.83 2°55.974 35 11.8 32 13.9
2009-07-13 07:51:36 51°23.847 2°55.99 34.1 11.8 29 16.3
2009-07-13 07:51:41 51°23.861 2°56.004 35.5 11.8 33 17.2
2009-07-13 07:51:45 51°23.873 2°56.013 33.9 11.8 28 16.6
2009-07-13 07:51:50 51°23.886 2°56.029 37.3 11.9 35 15.4
2009-07-13 07:51:55 51°23.901 2°56.038 32.7 11.9 23 17.2
2009-07-13 07:52:01 51°23.917 2°56.057 34.9 11.9 36 17
2009-07-13 07:52:05 51°23.929 2°56.066 35 11.9 28 15.9
2009-07-13 07:52:10 51°23.943 2°56.08 34.8 11.8 30 17.1
2009-07-13 07:52:15 51°23.957 2°56.094 35.5 11.9 32 17.5
2009-07-13 07:52:21 51°23.974 2°56.11 34.6 11.9 30 17
2009-07-13 07:52:25 51°23.986 2°56.121 35.5 12 32 15.8
2009-07-13 07:52:30 51°24.001 2°56.134 34.5 12.1 28 17.8
2009-07-13 07:52:35 51°24.015 2°56.149 34.6 12.1 33 15.5
2009-07-13 07:52:41 51°24.032 2°56.163 34.6 12 27 17.4
2009-07-13 07:52:45 51°24.043 2°56.176 35.9 11.8 33 18.3
2009-07-13 07:52:51 51°24.06 2°56.191 35.3 11.9 30 18.1
2009-07-13 07:52:55 51°24.071 2°56.203 35.7 11.9 32 17.5
2009-07-13 07:53:01 51°24.088 2°56.218 34.2 11.8 30 15.9
2009-07-13 07:53:05 51°24.099 2°56.23 35.7 11.9 34 18.1
2009-07-13 07:53:11 51°24.116 2°56.245 35.4 11.9 28 18.7
2009-07-13 07:53:15 51°24.127 2°56.257 34.9 11.8 35 18.9
2009-07-13 07:53:21 51°24.144 2°56.272 37.1 11.9 27 18.3
2009-07-13 07:53:25 51°24.156 2°56.282 33.5 12 29 16.8
2009-07-13 07:53:30 51°24.17 2°56.297 35 11.9 33 19.4
2009-07-13 07:53:36 51°24.187 2°56.312 35.2 12 27 19.2
2009-07-13 07:53:41 51°24.201 2°56.327 34 11.9 37 18.3
2009-07-13 07:53:45 51°24.212 2°56.337 36.3 12 29 15.9
2009-07-13 07:53:50 51°24.226 2°56.351 34.9 11.9 33 19.2
2009-07-13 07:53:55 51°24.24 2°56.364 35.4 11.9 31 19.8
2009-07-13 07:54:01 51°24.257 2°56.382 36.5 11.9 33 20
2009-07-13 07:54:05 51°24.269 2°56.391 33.8 11.8 29 19.5
2009-07-13 07:54:11 51°24.284 2°56.41 38.8 11.8 37 18.6
2009-07-13 07:54:15 51°24.296 2°56.419 35 11.9 27 17.3
2009-07-13 07:54:21 51°24.312 2°56.437 35.3 11.9 34 19.6
2009-07-13 07:54:25 51°24.324 2°56.448 35.9 11.9 31 20.5
2009-07-13 07:54:30 51°24.338 2°56.461 35.1 11.9 31 20.3
2009-07-13 07:54:35 51°24.352 2°56.475 34.9 11.9 31 20
2009-07-13 07:54:41 51°24.369 2°56.492 34.3 11.9 32 20.1
2009-07-13 07:54:45 51°24.381 2°56.501 34.9 11.9 29 20.6
2009-07-13 07:54:50 51°24.394 2°56.515 34.1 11.8 33 20.6
2009-07-13 07:54:55 51°24.408 2°56.53 36.7 11.9 32 20.5
2009-07-13 07:55:01 51°24.425 2°56.546 34.4 11.9 29 20.8
2009-07-13 07:55:05 51°24.436 2°56.557 35.9 11.8 34 20.7
2009-07-13 07:55:10 51°24.451 2°56.569 35.5 11.7 29 20.5
2009-07-13 07:55:15 51°24.464 2°56.584 35.3 11.6 34 20.5
2009-07-13 07:55:21 51°24.48 2°56.601 35.9 11.8 34 20.7
2009-07-13 07:55:25 51°24.492 2°56.61 35.1 11.8 27 20.5
2009-07-13 07:55:29 51°24.503 2°56.622 36.3 11.8 37 20.8
2009-07-13 07:55:35 51°24.52 2°56.637 35.7 11.7 26 20.8
2009-07-13 07:55:41 51°24.536 2°56.655 34.7 11.6 35 21
2009-07-13 07:55:45 51°24.547 2°56.665 36.1 11.7 30 20.9
2009-07-13 07:55:50 51°24.561 2°56.679 35.5 11.8 34 21
2009-07-13 07:55:56 51°24.578 2°56.694 34.5 11.8 28 20.8
2009-07-13 07:56:01 51°24.591 2°56.711 36.3 11.9 37 20.9
2009-07-13 07:56:05 51°24.603 2°56.718 35.4 11.9 25 20.9
2009-07-13 07:56:10 51°24.617 2°56.733 34.8 11.7 35 21.1
2009-07-13 07:56:15 51°24.631 2°56.746 36.3 11.8 29 21.2
2009-07-13 07:56:21 51°24.648 2°56.763 34.5 11.9 32 21.3
2009-07-13 07:56:25 51°24.659 2°56.775 35.8 12 32 21.3
2009-07-13 07:56:30 51°24.674 2°56.787 34.8 12 29 21.2
2009-07-13 07:56:35 51°24.687 2°56.802 35.7 12 35 21.5
2009-07-13 07:56:41 51°24.705 2°56.816 34.2 11.9 26 21.3
2009-07-13 07:56:45 51°24.715 2°56.83 36.5 11.8 36 21.5
2009-07-13 07:56:50 51°24.73 2°56.841 35.3 11.9 28 21.6
2009-07-13 07:56:55 51°24.744 2°56.856 35.4 11.7 34 21.7
2009-07-13 07:57:01 51°24.761 2°56.871 35.6 11.7 28 21.7
2009-07-13 07:57:05 51°24.771 2°56.883 36.4 11.7 36 21.8
2009-07-13 07:57:10 51°24.785 2°56.895 35.7 11.7 27 22
2009-07-13 07:57:15 51°24.799 2°56.91 35.2 11.8 35 22.3
2009-07-13 07:57:21 51°24.816 2°56.924 36.8 11.8 28 22
2009-07-13 07:57:25 51°24.827 2°56.935 33.6 11.6 30 22
2009-07-13 07:57:30 51°24.84 2°56.951 36.8 11.7 34 22.3
2009-07-13 07:57:35 51°24.855 2°56.961 33.7 11.6 26 22.7
2009-07-13 07:57:41 51°24.871 2°56.98 35.7 11.7 35 22.5
2009-07-13 07:57:45 51°24.882 2°56.989 36.5 11.7 29 22.7
2009-07-13 07:57:51 51°24.899 2°57.006 33.9 11.6 32 22.6
2009-07-13 07:57:56 51°24.913 2°57.019 36.6 11.8 32 22.7
2009-07-13 07:58:01 51°24.927 2°57.032 34.2 11.8 29 22.9
2009-07-13 07:58:05 51°24.938 2°57.043 34.4 11.6 34 22.8
2009-07-13 07:58:10 51°24.952 2°57.056 35.7 11.6 29 23
2009-07-13 07:58:15 51°24.966 2°57.069 34.9 11.6 32 23.1
2009-07-13 07:58:21 51°24.982 2°57.086 36.6 11.6 33 23.4
2009-07-13 07:58:25 51°24.993 2°57.095 34.9 11.5 29 23.6
2009-07-13 07:58:30 51°25.006 2°57.111 35.8 11.6 35 23.6
2009-07-13 07:58:35 51°25.021 2°57.121 34.5 11.6 27 23.7
2009-07-13 07:58:41 51°25.036 2°57.14 36 11.7 36 23.9
2009-07-13 07:58:45 51°25.049 2°57.147 34.3 11.8 24 23.7
2009-07-13 07:58:50 51°25.062 2°57.162 34.1 11.5 34 23.7
2009-07-13 07:58:55 51°25.076 2°57.174 35.3 11.6 28 24
2009-07-13 07:59:01 51°25.093 2°57.19 33.6 11.6 29 23.8
2009-07-13 07:59:05 51°25.103 2°57.201 35.3 11.6 33 24.2
2009-07-13 07:59:11 51°25.12 2°57.216 32.7 11.5 28 24.1
2009-07-13 07:59:15 51°25.13 2°57.229 38.4 11.7 37 24.4
2009-07-13 07:59:20 51°25.146 2°57.238 33.7 11.8 23 24
2009-07-13 07:59:25 51°25.158 2°57.255 36.1 11.6 37 24.3
2009-07-13 07:59:30 51°25.173 2°57.266 35.5 11.7 27 24
2009-07-13 07:59:35 51°25.186 2°57.28 35.3 11.7 32 24.2
2009-07-13 07:59:41 51°25.203 2°57.297 35.5 11.7 33 24.5
2009-07-13 07:59:45 51°25.214 2°57.307 35.7 11.7 29 24.2
2009-07-13 07:59:50 51°25.228 2°57.321 35.9 11.7 33 24.2
2009-07-13 07:59:55 51°25.242 2°57.333 35.1 11.7 30 24.5
2009-07-13 08:00:01 51°25.258 2°57.35 34.9 11.7 32 24.2
2009-07-13 08:00:05 51°25.27 2°57.361 36 11.7 31 24.4
2009-07-13 08:00:10 51°25.284 2°57.373 33.8 11.7 29 24.8
2009-07-13 08:00:15 51°25.297 2°57.388 35.2 11.6 34 24.6
2009-07-13 08:00:21 51°25.314 2°57.403 35.4 11.8 30 24.9
2009-07-13 08:00:25 51°25.326 2°57.414 34.2 11.8 30 24.8
2009-07-13 08:00:30 51°25.34 2°57.427 34.7 11.8 32 24.3
2009-07-13 08:00:35 51°25.353 2°57.442 36 11.9 33 24.8
2009-07-13 08:00:41 51°25.371 2°57.455 32.9 11.9 25 24.6
2009-07-13 08:00:45 51°25.381 2°57.47 37.4 12 39 25.1
2009-07-13 08:00:50 51°25.397 2°57.479 34.1 11.9 23 24.8
2009-07-13 08:00:56 51°25.412 2°57.498 35.7 11.8 37 24.9
2009-07-13 08:01:01 51°25.427 2°57.508 34.9 11.8 25 24.8
2009-07-13 08:01:05 51°25.437 2°57.522 36.6 11.7 37 24.6
2009-07-13 08:01:09 51°25.449 2°57.531 35.1 11.8 25 24.5
2009-07-13 08:01:15 51°25.465 2°57.548 35.5 11.7 35 24.6
2009-07-13 08:01:21 51°25.482 2°57.563 35.7 11.7 30 24.7
2009-07-13 08:01:25 51°25.493 2°57.573 34.1 11.6 27 24.5
2009-07-13 08:01:31 51°25.509 2°57.591 36 11.6 36 24.7
2009-07-13 08:01:35 51°25.521 2°57.599 34.9 11.7 26 24.5
2009-07-13 08:01:40 51°25.535 2°57.612 33.8 11.7 30 24.6
2009-07-13 08:01:45 51°25.548 2°57.626 35.3 11.6 32 24.4
2009-07-13 08:01:50 51°25.563 2°57.638 34.1 11.6 28 24.4
2009-07-13 08:01:56 51°25.579 2°57.654 34.2 11.6 32 24.3
2009-07-13 08:02:01 51°25.593 2°57.668 36 11.6 32 24.3
2009-07-13 08:02:05 51°25.604 2°57.678 35.2 11.8 29 24.3
2009-07-13 08:02:10 51°25.618 2°57.692 34.9 11.9 32 24.4
2009-07-13 08:02:16 51°25.636 2°57.707 34.4 11.9 29 24.6
2009-07-13 08:02:21 51°25.649 2°57.721 34.6 11.8 32 24.4
2009-07-13 08:02:25 51°25.661 2°57.731 34.9 11.8 30 24.8
2009-07-13 08:02:30 51°25.675 2°57.742 33.5 11.7 27 24.7
2009-07-13 08:02:35 51°25.689 2°57.758 36.3 11.7 34 24.6
2009-07-13 08:02:41 51°25.706 2°57.771 34.4 11.7 26 24.5
2009-07-13 08:02:45 51°25.716 2°57.783 35.7 11.6 35 24.3
2009-07-13 08:02:50 51°25.731 2°57.795 35.3 11.6 26 24.5
2009-07-13 08:02:55 51°25.744 2°57.809 35.3 11.4 35 24.3
2009-07-13 08:03:01 51°25.76 2°57.824 37.8 11.4 31 24.4
2009-07-13 08:03:05 51°25.771 2°57.834 35 11.5 29 24.1
2009-07-13 08:03:10 51°25.784 2°57.85 37 11.5 35 24.1
2009-07-13 08:03:15 51°25.799 2°57.86 35.1 11.6 26 24.2
2009-07-13 08:03:21 51°25.814 2°57.878 35.5 11.5 35 24.2
2009-07-13 08:03:25 51°25.826 2°57.886 35.1 11.6 26 23.9
2009-07-13 08:03:30 51°25.839 2°57.902 36.7 11.6 37 24
2009-07-13 08:03:35 51°25.854 2°57.913 35.3 11.7 25 23.8
2009-07-13 08:03:41 51°25.869 2°57.932 36.5 11.6 37 23.5
2009-07-13 08:03:45 51°25.881 2°57.939 35.5 11.6 25 23.4
2009-07-13 08:03:50 51°25.894 2°57.953 34.7 11.4 34 23.4
2009-07-13 08:03:55 51°25.907 2°57.967 37.1 11.5 32 23.3
2009-07-13 08:04:01 51°25.924 2°57.981 35.5 11.5 28 23.3
2009-07-13 08:04:06 51°25.938 2°57.995 35.7 11.4 33 23.2
2009-07-13 08:04:10 51°25.949 2°58.005 35.7 11.6 30 23.3
2009-07-13 08:04:15 51°25.963 2°58.018 33.7 11.5 29 22.9
2009-07-13 08:04:20 51°25.975 2°58.033 38.3 11.5 35 23.1
2009-07-13 08:04:25 51°25.99 2°58.043 33.2 11.5 23 23.3
2009-07-13 08:04:30 51°26.004 2°58.057 33.5 11.5 34 22.3
2009-07-13 08:04:36 51°26.021 2°58.07 35.3 11.7 27 21.9
2009-07-13 08:04:41 51°26.034 2°58.085 33.5 11.6 34 22.7
2009-07-13 08:04:45 51°26.046 2°58.093 34.4 11.6 26 22.5
2009-07-13 08:04:50 51°26.06 2°58.107 34.7 11.6 32 22.6
2009-07-13 08:04:56 51°26.077 2°58.121 34.7 11.7 28 22.2
2009-07-13 08:05:01 51°26.091 2°58.134 34.3 11.6 29 22.6
2009-07-13 08:05:05 51°26.102 2°58.145 34.6 11.6 32 21.7
2009-07-13 08:05:10 51°26.115 2°58.158 36.7 11.6 30 21.3
2009-07-13 08:05:15 51°26.13 2°58.168 33 11.6 25 21.3
2009-07-13 08:05:21 51°26.146 2°58.185 35.4 11.5 32 21.5
2009-07-13 08:05:25 51°26.158 2°58.194 34.4 11.6 28 21.9
2009-07-13 08:05:30 51°26.171 2°58.208 35.5 11.3 31 21.7
2009-07-13 08:05:35 51°26.184 2°58.218 34.5 10.4 28 22
2009-07-13 08:05:41 51°26.198 2°58.23 33.6 9.6 29 21.7
2009-07-13 08:05:45 51°26.206 2°58.237 34.7 8.9 28 21.7
2009-07-13 08:05:50 51°26.217 2°58.246 33.2 8.4 28 21.5
2009-07-13 08:05:55 51°26.226 2°58.254 33.8 8 27 21.3
2009-07-13 08:06:01 51°26.237 2°58.263 33.7 7.5 28 21.2
2009-07-13 08:06:05 51°26.244 2°58.269 34.6 7.1 28 20.5
2009-07-13 08:06:10 51°26.252 2°58.276 34.4 6.7 27 19.7
2009-07-13 08:06:15 51°26.26 2°58.283 34.9 6.3 30 20.4
2009-07-13 08:06:21 51°26.269 2°58.291 35.5 6 30 20.2
2009-07-13 08:06:25 51°26.274 2°58.296 36.4 5.8 29 20.3
2009-07-13 08:06:30 51°26.281 2°58.302 37.1 5.5 29 20.3
2009-07-13 08:06:35 51°26.287 2°58.308 36.5 5.3 30 20.4
2009-07-13 08:06:41 51°26.295 2°58.314 36.4 5.2 28 20.4
2009-07-13 08:06:45 51°26.3 2°58.318 36.7 5 29 20.6
2009-07-13 08:06:50 51°26.306 2°58.323 36.4 4.9 29 20.4
2009-07-13 08:06:56 51°26.313 2°58.33 36.2 4.7 29 20.7
2009-07-13 08:07:01 51°26.318 2°58.334 36.5 4.7 27 20.6
2009-07-13 08:07:05 51°26.323 2°58.338 35.9 4.6 28 20.1
2009-07-13 08:07:10 51°26.328 2°58.343 35.5 4.5 27 20.1
2009-07-13 08:07:15 51°26.334 2°58.347 34.7 4.3 27 19.6
2009-07-13 08:07:21 51°26.34 2°58.352 34.7 4.2 27 18.4
2009-07-13 08:07:25 51°26.344 2°58.355 34.4 4.1 24 17.7
2009-07-13 08:07:30 51°26.349 2°58.359 34.2 4.1 25 18.2
2009-07-13 08:07:35 51°26.354 2°58.363 33.9 4 26 18.4
2009-07-13 08:07:41 51°26.36 2°58.367 33.7 4 24 19
2009-07-13 08:07:45 51°26.364 2°58.37 33.4 3.9 25 19.3
2009-07-13 08:07:49 51°26.368 2°58.373 33.1 3.8 24 19.4
2009-07-13 08:07:55 51°26.373 2°58.377 32.9 3.7 24 19.9
2009-07-13 08:08:01 51°26.379 2°58.38 32.7 3.7 23 20
2009-07-13 08:08:05 51°26.383 2°58.383 32.6 3.7 24 20.2
2009-07-13 08:08:10 51°26.388 2°58.386 32.7 3.7 23 19.4
2009-07-13 08:08:15 51°26.392 2°58.39 32.8 3.6 24 19.5
2009-07-13 08:08:21 51°26.398 2°58.393 32.8 3.6 22 19.6
2009-07-13 08:08:25 51°26.401 2°58.396 32.9 3.6 24 19.7
2009-07-13 08:08:30 51°26.406 2°58.399 33.1 3.6 23 19.7
2009-07-13 08:08:35 51°26.41 2°58.403 33.5 3.5 26 19.9
2009-07-13 08:08:41 51°26.416 2°58.406 34.1 3.5 25 19.8
2009-07-13 08:08:45 51°26.419 2°58.409 34.1 3.6 25 19.8
2009-07-13 08:08:51 51°26.425 2°58.412 34.2 3.5 23 20.2
2009-07-13 08:08:56 51°26.429 2°58.416 34.2 3.5 23 20.3
2009-07-13 08:09:01 51°26.433 2°58.419 34.2 3.4 24 20
2009-07-13 08:09:05 51°26.437 2°58.421 34.3 3.5 24 20.1
2009-07-13 08:09:10 51°26.441 2°58.424 34.2 3.5 26 20.4
2009-07-13 08:09:15 51°26.445 2°58.427 34.1 3.4 25 20.5
2009-07-13 08:09:21 51°26.451 2°58.431 34.3 3.3 25 20.4
2009-07-13 08:09:25 51°26.454 2°58.433 34.4 3.3 26 20.5
2009-07-13 08:09:30 51°26.458 2°58.436 34.2 3.4 21 20.1
2009-07-13 08:09:35 51°26.463 2°58.439 34.3 3.4 25 19.9
2009-07-13 08:09:41 51°26.468 2°58.443 34.2 3.4 22 20
2009-07-13 08:09:45 51°26.471 2°58.445 33.5 3.4 24 20.1
2009-07-13 08:09:50 51°26.475 2°58.448 33.5 3.3 24 20.2
2009-07-13 08:09:56 51°26.48 2°58.452 33.5 3.3 22 19.9
2009-07-13 08:10:01 51°26.485 2°58.454 33.8 3.3 24 19.8
2009-07-13 08:10:05 51°26.488 2°58.456 33.5 3.4 19 19.6
2009-07-13 08:10:10 51°26.492 2°58.46 33.3 3.3 24 20.1
2009-07-13 08:10:15 51°26.496 2°58.462 32.7 3.3 20 20
2009-07-13 08:10:21 51°26.502 2°58.466 32.7 3.2 25 20.3
2009-07-13 08:10:25 51°26.505 2°58.467 33.1 3.3 20 20.1
2009-07-13 08:10:30 51°26.509 2°58.47 33.6 3.2 22 19.8
2009-07-13 08:10:35 51°26.513 2°58.473 34.1 3.3 21 20.1
2009-07-13 08:10:41 51°26.518 2°58.476 34.2 3.3 23 20
2009-07-13 08:10:45 51°26.522 2°58.479 34.2 3.3 21 20.2
2009-07-13 08:10:50 51°26.526 2°58.481 34.4 3.3 22 20.2
2009-07-13 08:10:55 51°26.53 2°58.484 35 3.3 23 19.7
2009-07-13 08:11:01 51°26.535 2°58.488 35.5 3.3 23 19.5